Time;durP1;ratioP1;P1;durP2;ratioP2;P2;SDS_P1;SDS_P2;PMS_P1;PMS_P2;Temp;Humidity;BMP_temperature;BMP_pressure;BME280_temperature;BME280_humidity;BME280_pressure;Samples;Min_cycle;Max_cycle;Signal;HPM_P1;HPM_P2
2022/10/08 00:01:23;;;;;;;10.23;3.30;;;;;;;11.06;89.72;101623.28;5036785;28;20030;-76
2022/10/08 00:03:52;;;;;;;15.07;3.97;;;;;;;10.96;89.62;101609.19;5036860;28;20056;-78
2022/10/08 00:06:24;;;;;;;12.95;3.80;;;;;;;11.06;90.17;101620.69;5036760;28;20029;-80
2022/10/08 00:08:52;;;;;;;14.85;4.03;;;;;;;11.19;89.74;101636.41;5036666;28;20029;-75
2022/10/08 00:11:38;;;;;;;15.25;4.13;;;;;;;11.28;89.14;101629.91;5036160;28;20034;-75
2022/10/08 00:14:04;;;;;;;12.32;3.50;;;;;;;11.34;89.24;101630.44;5036483;28;20112;-81
2022/10/08 00:16:33;;;;;;;17.92;4.32;;;;;;;11.39;88.93;101625.00;5036341;28;20030;-79
2022/10/08 00:19:02;;;;;;;13.63;3.70;;;;;;;11.42;88.72;101623.09;5036507;28;20435;-76
2022/10/08 00:21:31;;;;;;;13.75;3.08;;;;;;;11.47;88.71;101634.00;5036445;28;20440;-79
2022/10/08 00:23:57;;;;;;;12.65;3.63;;;;;;;11.50;88.10;101609.72;5018405;28;20469;-75
2022/10/08 00:26:25;;;;;;;14.05;3.40;;;;;;;11.58;88.24;101625.66;5036067;28;20041;-75
2022/10/08 00:28:53;;;;;;;15.68;4.05;;;;;;;11.62;87.99;101624.59;5036191;28;20503;-77
2022/10/08 00:31:23;;;;;;;15.95;4.28;;;;;;;11.62;88.01;101624.59;5036219;28;20435;-77
2022/10/08 00:33:55;;;;;;;14.65;4.35;;;;;;;11.70;87.51;101622.44;5036253;28;20580;-76
2022/10/08 00:36:23;;;;;;;10.77;3.88;;;;;;;11.72;87.48;101624.94;5036301;28;20397;-79
2022/10/08 00:38:53;;;;;;;17.48;4.55;;;;;;;11.74;87.48;101629.09;5035877;28;20025;-76
2022/10/08 00:41:21;;;;;;;13.80;3.78;;;;;;;11.70;87.52;101629.34;5035990;28;20029;-76
2022/10/08 00:43:50;;;;;;;14.70;3.97;;;;;;;11.78;87.48;101629.75;5035987;28;20017;-76
2022/10/08 00:46:21;;;;;;;15.60;3.83;;;;;;;11.79;87.57;101631.41;5036156;28;20032;-75
2022/10/08 00:48:48;;;;;;;;;;;;;;;11.81;88.06;101641.75;5036501;28;20087;-77
2022/10/08 00:51:13;;;;;;;15.82;4.20;;;;;;;11.71;88.91;101636.22;5035867;28;19912;-78
2022/10/08 00:53:38;;;;;;;13.43;3.70;;;;;;;11.77;89.50;101641.84;5035737;28;20040;-75
2022/10/08 00:56:04;;;;;;;11.88;3.85;;;;;;;11.65;89.81;101624.44;5035550;28;20118;-75
2022/10/08 00:58:31;;;;;;;18.00;4.72;;;;;;;11.76;89.80;101647.97;5035738;28;20112;-77
2022/10/08 01:00:57;;;;;;;14.77;4.82;;;;;;;11.62;89.74;101622.03;5035787;28;20465;-75
2022/10/08 01:03:22;;;;;;;15.88;4.82;;;;;;;11.76;90.12;101653.13;5035807;28;20104;-75
2022/10/08 01:06:06;;;;;;;13.77;4.72;;;;;;;11.76;89.39;101657.47;5035718;28;20021;-75
2022/10/08 01:08:56;;;;;;;16.00;4.28;;;;;;;11.77;89.92;101656.56;5035059;28;20040;-75
2022/10/08 01:11:57;;;;;;;12.40;4.28;;;;;;;11.78;89.91;101659.06;5036321;28;20072;-76
2022/10/08 01:14:32;;;;;;;13.27;4.55;;;;;;;11.81;90.91;101652.09;5019717;28;20033;-76
2022/10/08 01:17:28;;;;;;;16.10;5.00;;;;;;;11.80;92.30;101647.81;5017534;28;20030;-75
2022/10/08 01:20:44;;;;;;;14.25;5.22;;;;;;;11.76;93.60;101653.13;5036994;28;20025;-76
2022/10/08 01:23:31;;;;;;;17.55;6.65;;;;;;;11.70;95.30;101662.97;4937347;29;20448;-75
2022/10/08 01:26:07;;;;;;;19.55;7.18;;;;;;;11.60;96.99;101660.06;4937523;29;20047;-81
2022/10/08 01:28:41;;;;;;;13.23;7.20;;;;;;;11.48;98.53;101661.53;4935532;29;20063;-82
2022/10/08 01:31:18;;;;;;;17.48;7.50;;;;;;;11.43;99.54;101660.13;4935909;29;20502;-81
2022/10/08 01:33:49;;;;;;;15.95;8.00;;;;;;;11.35;100.00;101657.94;4935874;29;20036;-80
2022/10/08 01:36:17;;;;;;;;;;;;;;;11.35;97.58;101657.13;4936388;29;20036;-82
2022/10/08 01:38:48;;;;;;;18.65;8.15;;;;;;;11.27;100.00;101661.84;4935700;29;19922;-81
2022/10/08 01:41:16;;;;;;;13.98;7.68;;;;;;;11.25;100.00;101663.69;4935787;29;20046;-81
2022/10/08 01:43:48;;;;;;;17.08;7.70;;;;;;;11.18;100.00;101645.91;4935600;29;20036;-82
2022/10/08 01:46:25;;;;;;;15.95;8.18;;;;;;;11.15;100.00;101648.66;4935597;29;20047;-82
2022/10/08 01:48:53;;;;;;;19.05;7.50;;;;;;;11.13;100.00;101644.50;4935605;29;20118;-82
2022/10/08 01:51:31;;;;;;;17.42;7.65;;;;;;;11.10;100.00;101655.81;4935368;29;20036;-81
2022/10/08 01:53:58;;;;;;;16.42;8.07;;;;;;;11.05;100.00;101646.63;4935461;29;20036;-82
2022/10/08 01:56:26;;;;;;;18.15;7.97;;;;;;;11.04;100.00;101661.31;4935511;29;20171;-82
2022/10/08 01:59:10;;;;;;;15.23;7.45;;;;;;;10.93;100.00;101653.28;4936328;28;20032;-81
2022/10/08 02:02:00;;;;;;;18.48;7.90;;;;;;;10.84;100.00;101643.41;5034993;28;20033;-81
2022/10/08 02:04:32;;;;;;;19.67;6.72;;;;;;;10.83;100.00;101652.91;5016966;28;20080;-82
2022/10/08 02:07:00;;;;;;;16.60;7.25;;;;;;;10.91;100.00;101663.69;5034521;28;20022;-78
2022/10/08 02:09:27;;;;;;;18.35;8.10;;;;;;;10.90;100.00;101671.50;5034472;28;20041;-81
2022/10/08 02:11:53;;;;;;;16.40;7.40;;;;;;;10.86;100.00;101670.00;5034337;28;20046;-81
2022/10/08 02:14:23;;;;;;;14.40;7.60;;;;;;;10.81;100.00;101665.03;5034330;28;20103;-82
2022/10/08 02:16:54;;;;;;;15.07;7.38;;;;;;;10.78;100.00;101659.22;5034450;28;20032;-80
2022/10/08 02:19:32;;;;;;;19.73;8.75;;;;;;;10.77;100.00;101657.53;5034431;28;20026;-81
2022/10/08 02:22:00;;;;;;;17.25;8.13;;;;;;;10.76;100.00;101655.88;5015786;28;20033;-80
2022/10/08 02:24:40;;;;;;;15.85;7.28;;;;;;;10.83;100.00;101667.56;5034487;28;20370;-81
2022/10/08 02:27:09;;;;;;;13.43;7.35;;;;;;;10.83;100.00;101676.16;5034199;28;20032;-81
2022/10/08 02:29:51;;;;;;;16.70;8.18;;;;;;;10.79;100.00;101666.88;5034118;28;20025;-81
2022/10/08 02:32:19;;;;;;;16.27;7.57;;;;;;;10.83;100.00;101673.56;5033989;28;20037;-81
2022/10/08 02:35:24;;;;;;;13.02;6.60;;;;;;;10.82;100.00;101682.25;5034154;28;20029;-80
2022/10/08 02:37:58;;;;;;;12.07;6.30;;;;;;;10.73;100.00;101666.38;4934842;29;20052;-81
2022/10/08 02:40:26;;;;;;;15.23;5.78;;;;;;;10.73;100.00;101671.53;4918755;29;20050;-81
2022/10/08 02:42:57;;;;;;;12.38;6.13;;;;;;;10.79;100.00;101681.53;4934609;29;20044;-81
2022/10/08 02:45:29;;;;;;;;;;;;;;;10.81;100.00;101670.22;4934866;29;20032;-81
2022/10/08 02:48:02;;;;;;;14.98;5.40;;;;;;;10.74;100.00;101668.88;4934579;29;19921;-81
2022/10/08 02:50:32;;;;;;;11.82;5.13;;;;;;;10.69;100.00;101659.66;4918558;29;20031;-81
2022/10/08 02:52:58;;;;;;;12.68;4.88;;;;;;;10.71;100.00;101673.34;4934455;29;20028;-81
2022/10/08 02:56:04;;;;;;;13.88;4.63;;;;;;;10.64;100.00;101667.66;4934279;29;20467;-81
2022/10/08 02:58:30;;;;;;;11.00;4.10;;;;;;;10.41;100.00;101657.59;4877628;29;20048;-79
2022/10/08 03:01:03;;;;;;;10.63;4.03;;;;;;;10.48;100.00;101667.56;4877889;29;20056;-81
2022/10/08 03:03:33;;;;;;;15.52;4.60;;;;;;;10.41;100.00;101645.53;4877686;29;20053;-74
2022/10/08 03:06:02;;;;;;;12.20;4.47;;;;;;;10.48;100.00;101662.41;4877597;29;20073;-75
2022/10/08 03:08:29;;;;;;;12.05;4.03;;;;;;;10.50;100.00;101665.75;4877687;29;20042;-75
2022/10/08 03:10:55;;;;;;;11.98;4.47;;;;;;;10.50;100.00;101662.31;4877629;29;20063;-75
2022/10/08 03:13:21;;;;;;;10.98;3.97;;;;;;;10.51;100.00;101675.16;4877184;29;20556;-74
2022/10/08 03:15:52;;;;;;;8.73;3.40;;;;;;;10.54;100.00;101681.94;4945448;29;20062;-74
2022/10/08 03:18:19;;;;;;;;;;;;;;;10.57;100.00;101677.44;4953297;29;20082;-75
2022/10/08 03:20:49;;;;;;;11.73;3.95;;;;;;;10.54;100.00;101671.63;4952849;29;19925;-80
2022/10/08 03:23:16;;;;;;;11.05;3.75;;;;;;;10.54;100.00;101680.19;4953512;29;20031;-81
2022/10/08 03:25:42;;;;;;;7.43;3.20;;;;;;;10.51;100.00;101680.31;4953143;29;20031;-81
2022/10/08 03:28:07;;;;;;;13.30;3.58;;;;;;;10.49;100.00;101689.91;4946547;29;20059;-81
2022/10/08 03:30:33;;;;;;;10.85;3.63;;;;;;;10.37;100.00;101674.19;4917652;29;20032;-82
2022/10/08 03:32:58;;;;;;;15.20;3.85;;;;;;;10.33;100.00;101665.75;4933442;29;20516;-82
2022/10/08 03:35:23;;;;;;;10.95;3.58;;;;;;;10.43;100.00;101692.78;4997150;28;20038;-81
2022/10/08 03:37:51;;;;;;;9.75;3.33;;;;;;;10.34;100.00;101677.75;5013317;28;20037;-82
2022/10/08 03:40:16;;;;;;;10.32;3.47;;;;;;;10.36;100.00;101699.16;5013377;28;20026;-82
2022/10/08 03:42:41;;;;;;;9.57;3.53;;;;;;;10.23;100.00;101691.19;5013460;28;20033;-81
2022/10/08 03:45:07;;;;;;;8.02;3.42;;;;;;;10.11;100.00;101680.53;5011769;28;20088;-82
2022/10/08 03:47:32;;;;;;;8.90;3.30;;;;;;;10.14;100.00;101701.06;5013268;28;20068;-80
2022/10/08 03:49:57;;;;;;;15.13;3.78;;;;;;;10.01;100.00;101696.47;5013011;28;20033;-81
2022/10/08 03:52:23;;;;;;;11.60;3.40;;;;;;;9.90;100.00;101692.72;5013356;28;20037;-81
2022/10/08 03:54:48;;;;;;;16.48;3.75;;;;;;;9.75;100.00;101684.78;5013267;28;20057;-81
2022/10/08 03:57:13;;;;;;;9.48;3.58;;;;;;;9.78;100.00;101709.59;5013142;28;20097;-81
2022/10/08 03:59:39;;;;;;;11.20;3.67;;;;;;;9.71;100.00;101708.19;5012839;28;20411;-82
2022/10/08 04:02:04;;;;;;;8.77;3.55;;;;;;;9.48;100.00;101691.19;5013202;28;20030;-82
2022/10/08 04:04:29;;;;;;;13.15;4.25;;;;;;;9.38;100.00;101684.75;5013121;28;20029;-80
2022/10/08 04:06:54;;;;;;;12.57;4.05;;;;;;;9.52;100.00;101718.47;5012977;28;20033;-81
2022/10/08 04:09:20;;;;;;;13.10;3.60;;;;;;;9.34;100.00;101694.38;5013201;28;20029;-82
2022/10/08 04:11:45;;;;;;;11.45;4.13;;;;;;;9.43;100.00;101722.31;5012894;28;20042;-81
2022/10/08 04:14:10;;;;;;;12.18;4.28;;;;;;;9.43;100.00;101717.16;5012860;28;20129;-81
2022/10/08 04:16:36;;;;;;;9.02;4.25;;;;;;;9.47;100.00;101729.00;5012795;28;20501;-81
2022/10/08 04:19:01;;;;;;;16.33;5.55;;;;;;;9.56;100.00;101721.78;5012923;28;20473;-81
2022/10/08 04:21:28;;;;;;;13.00;5.30;;;;;;;9.67;100.00;101730.72;5012885;28;20022;-82
2022/10/08 04:23:54;;;;;;;16.10;6.68;;;;;;;9.64;100.00;101712.81;5012870;28;20112;-81
2022/10/08 04:26:19;;;;;;;14.68;5.88;;;;;;;9.67;100.00;101715.22;5012822;28;20022;-80
2022/10/08 04:28:46;;;;;;;12.07;6.22;;;;;;;9.64;100.00;101691.34;5012835;28;20030;-81
2022/10/08 04:31:18;;;;;;;12.82;5.97;;;;;;;9.92;100.00;101724.44;5012679;28;20029;-79
2022/10/08 04:33:45;;;;;;;18.65;9.40;;;;;;;9.96;100.00;101719.06;5012720;28;20056;-75
2022/10/08 04:36:13;;;;;;;21.60;11.40;;;;;;;9.98;100.00;101724.16;5012610;28;20030;-81
2022/10/08 04:38:38;;;;;;;26.45;13.75;;;;;;;10.00;100.00;101712.00;5012626;28;20462;-76
2022/10/08 04:41:06;;;;;;;29.05;15.60;;;;;;;10.13;100.00;101735.50;5012642;28;20040;-75
2022/10/08 04:43:33;;;;;;;30.55;17.17;;;;;;;10.12;100.00;101733.81;5013301;28;20080;-76
2022/10/08 04:45:58;;;;;;;35.20;18.92;;;;;;;9.99;100.00;101710.34;5016209;28;20567;-76
2022/10/08 04:48:23;;;;;;;34.90;20.05;;;;;;;10.22;100.00;101743.69;5016359;28;20033;-77
2022/10/08 04:50:54;;;;;;;36.25;19.60;;;;;;;10.29;100.00;101754.56;5015999;28;20377;-75
2022/10/08 04:53:19;;;;;;;37.07;21.10;;;;;;;10.25;100.00;101746.13;5016257;28;20407;-75
2022/10/08 04:55:45;;;;;;;42.72;21.27;;;;;;;10.26;100.00;101734.91;5016208;28;20053;-79
2022/10/08 04:58:10;;;;;;;41.05;22.90;;;;;;;10.35;100.00;101754.28;5016011;28;20462;-75
2022/10/08 05:00:35;;;;;;;42.58;22.35;;;;;;;10.24;100.00;101741.88;4998511;28;20065;-76
2022/10/08 05:03:00;;;;;;;46.10;24.08;;;;;;;10.36;100.00;101758.53;5015985;28;20053;-74
2022/10/08 05:05:26;;;;;;;45.88;24.55;;;;;;;10.41;100.00;101755.72;5016052;28;20096;-75
2022/10/08 05:07:55;;;;;;;44.05;24.13;;;;;;;10.38;100.00;101753.31;5015820;28;20033;-81
2022/10/08 05:10:22;;;;;;;47.35;25.50;;;;;;;10.42;100.00;101768.59;5015604;28;20058;-75
2022/10/08 05:12:48;;;;;;;42.70;23.98;;;;;;;10.40;100.00;101772.97;5015629;28;20130;-75
2022/10/08 05:15:13;;;;;;;44.47;24.73;;;;;;;10.29;100.00;101754.56;5015624;28;20398;-77
2022/10/08 05:17:38;;;;;;;45.28;24.42;;;;;;;10.37;100.00;101769.72;5015535;28;20034;-75
2022/10/08 05:20:04;;;;;;;53.55;25.60;;;;;;;10.30;100.00;101766.56;5015654;28;20025;-79
2022/10/08 05:22:29;;;;;;;51.58;27.15;;;;;;;10.22;100.00;101755.75;5015275;28;20099;-75
2022/10/08 05:24:55;;;;;;;50.90;28.60;;;;;;;10.32;100.00;101781.09;5015616;28;20048;-75
2022/10/08 05:27:20;;;;;;;51.25;28.50;;;;;;;10.25;100.00;101773.69;5015690;28;20029;-80
2022/10/08 05:29:45;;;;;;;58.30;29.73;;;;;;;10.29;100.00;101786.38;5015440;28;20120;-81
2022/10/08 05:32:10;;;;;;;59.25;29.58;;;;;;;10.18;100.00;101769.69;5015342;28;20065;-79
2022/10/08 05:34:36;;;;;;;56.45;30.13;;;;;;;10.21;100.00;101785.03;5015265;28;20026;-78
2022/10/08 05:37:01;;;;;;;62.05;31.95;;;;;;;10.19;100.00;101789.44;5015134;28;20032;-79
2022/10/08 05:39:26;;;;;;;61.38;31.33;;;;;;;10.05;100.00;101780.59;5015215;28;20026;-79
2022/10/08 05:41:53;;;;;;;68.10;32.92;;;;;;;10.17;100.00;101793.84;5015155;28;20528;-79
2022/10/08 05:44:18;;;;;;;68.97;32.40;;;;;;;10.14;100.00;101801.72;5015314;28;20037;-80
2022/10/08 05:46:43;;;;;;;65.28;32.60;;;;;;;10.01;100.00;101791.09;5014977;28;20026;-81
2022/10/08 05:49:16;;;;;;;71.60;33.80;;;;;;;10.11;100.00;101809.59;5015181;28;20037;-80
2022/10/08 05:51:42;;;;;;;72.65;35.30;;;;;;;10.09;100.00;101808.81;5014960;28;20026;-81
2022/10/08 05:54:07;;;;;;;73.30;35.38;;;;;;;10.04;100.00;101812.47;5014961;28;20096;-79
2022/10/08 05:56:33;;;;;;;72.10;34.70;;;;;;;9.89;100.00;101796.81;5015172;28;20025;-81
2022/10/08 05:58:58;;;;;;;73.00;35.10;;;;;;;9.77;100.00;101783.56;5015097;28;20030;-80
2022/10/08 06:01:26;;;;;;;77.85;36.95;;;;;;;9.98;100.00;101829.94;5014953;28;20069;-81
2022/10/08 06:03:56;;;;;;;77.13;37.63;;;;;;;9.74;100.00;101788.88;5015458;28;20022;-81
2022/10/08 06:06:23;;;;;;;73.35;36.33;;;;;;;9.98;100.00;101830.78;5014748;28;20037;-80
2022/10/08 06:08:57;;;;;;;75.30;36.47;;;;;;;9.87;100.00;101827.00;5014906;28;20042;-80
2022/10/08 06:11:23;;;;;;;78.65;36.78;;;;;;;9.85;100.00;101832.25;5014547;28;20058;-78
2022/10/08 06:13:52;;;;;;;81.00;36.83;;;;;;;9.82;100.00;101836.69;5014891;28;20033;-78
2022/10/08 06:16:18;;;;;;;79.15;36.78;;;;;;;9.81;100.00;101835.00;5014803;28;20389;-75
2022/10/08 06:18:43;;;;;;;72.47;36.38;;;;;;;9.78;100.00;101846.31;5014514;28;20083;-80
2022/10/08 06:21:11;;;;;;;75.95;37.38;;;;;;;9.77;100.00;101850.63;5014494;28;20064;-76
2022/10/08 06:23:38;;;;;;;78.53;35.58;;;;;;;9.72;100.00;101855.13;5014654;28;20104;-76
2022/10/08 06:26:09;;;;;;;77.95;35.08;;;;;;;9.75;100.00;101867.09;5014792;28;20029;-79
2022/10/08 06:28:36;;;;;;;78.47;36.63;;;;;;;9.74;100.00;101871.41;5014800;28;20092;-77
2022/10/08 06:31:02;;;;;;;73.50;34.88;;;;;;;9.75;100.00;101874.81;5014460;28;20045;-80
2022/10/08 06:33:27;;;;;;;73.78;33.80;;;;;;;9.75;100.00;101872.25;5014256;28;20029;-79
2022/10/08 06:35:52;;;;;;;77.13;34.97;;;;;;;9.86;100.00;101884.69;5014265;28;20022;-76
2022/10/08 06:38:18;;;;;;;75.95;34.85;;;;;;;9.90;100.00;101892.19;5014418;28;20033;-75
2022/10/08 06:40:43;;;;;;;70.03;35.63;;;;;;;9.89;100.00;101887.94;5014332;28;20029;-78
2022/10/08 06:43:16;;;;;;;73.90;35.60;;;;;;;9.94;100.00;101890.34;5014245;28;20113;-75
2022/10/08 06:45:43;;;;;;;72.20;33.35;;;;;;;9.97;100.00;101893.63;5014387;28;20026;-80
2022/10/08 06:48:10;;;;;;;75.88;34.25;;;;;;;9.98;100.00;101897.03;5014005;28;20390;-76
2022/10/08 06:50:36;;;;;;;78.93;35.03;;;;;;;9.99;100.00;101894.38;5014024;28;20033;-76
2022/10/08 06:53:03;;;;;;;67.22;34.22;;;;;;;10.02;100.00;101899.41;5014424;28;20026;-78
2022/10/08 06:55:34;;;;;;;75.15;33.42;;;;;;;10.13;100.00;101914.44;5014280;28;20077;-76
2022/10/08 06:58:00;;;;;;;73.72;32.58;;;;;;;10.12;100.00;101906.75;5014307;28;20366;-76
2022/10/08 07:00:25;;;;;;;67.63;32.33;;;;;;;10.30;100.00;101926.63;5014143;28;20034;-78
2022/10/08 07:02:51;;;;;;;66.72;33.08;;;;;;;10.36;100.00;101931.53;5013858;28;20048;-79
2022/10/08 07:05:17;;;;;;;57.13;29.83;;;;;;;10.24;100.00;101914.84;5013869;28;20133;-82
2022/10/08 07:07:43;;;;;;;57.80;28.52;;;;;;;10.41;100.00;101933.91;5012133;28;20061;-76
2022/10/08 07:10:08;;;;;;;59.20;29.63;;;;;;;10.42;100.00;101944.19;5013963;28;20517;-77
2022/10/08 07:12:34;;;;;;;57.65;27.83;;;;;;;10.39;100.00;101936.56;5013943;28;20490;-77
2022/10/08 07:14:59;;;;;;;55.58;27.40;;;;;;;10.48;100.00;101948.22;5013743;28;20441;-79
2022/10/08 07:17:27;;;;;;;49.10;24.88;;;;;;;10.41;100.00;101947.66;5013316;28;20480;-77
2022/10/08 07:19:53;;;;;;;46.85;24.25;;;;;;;10.39;100.00;101933.97;5013578;28;20462;-77
2022/10/08 07:22:18;;;;;;;47.08;24.60;;;;;;;10.54;100.00;101960.88;5013923;28;20129;-82
2022/10/08 07:24:43;;;;;;;40.60;21.20;;;;;;;10.58;100.00;101968.41;5013851;28;20034;-76
2022/10/08 07:27:09;;;;;;;42.63;21.90;;;;;;;10.60;100.00;101966.56;5013468;28;20029;-81
2022/10/08 07:29:34;;;;;;;35.15;19.83;;;;;;;10.49;100.00;101947.31;5013250;28;20072;-79
2022/10/08 07:32:00;;;;;;;36.22;19.05;;;;;;;10.67;100.00;101974.06;5013355;28;20026;-78
2022/10/08 07:34:25;;;;;;;36.60;17.58;;;;;;;10.72;100.00;101977.28;5013351;28;20034;-80
2022/10/08 07:36:51;;;;;;;34.67;17.40;;;;;;;10.65;100.00;101960.38;5013331;28;20109;-80
2022/10/08 07:39:20;;;;;;;28.35;16.15;;;;;;;10.77;100.00;101983.06;5013385;28;20030;-75
2022/10/08 07:41:47;;;;;;;28.83;14.35;;;;;;;10.86;100.00;101998.16;5013295;28;20488;-79
2022/10/08 07:44:13;;;;;;;34.53;15.98;;;;;;;10.91;100.00;101998.78;5013486;28;20172;-80
2022/10/08 07:46:44;;;;;;;31.42;16.08;;;;;;;10.91;100.00;101985.84;5013167;28;20124;-78
2022/10/08 07:49:10;;;;;;;26.83;12.68;;;;;;;10.87;100.00;101971.41;5013232;28;20377;-79
2022/10/08 07:51:35;;;;;;;26.42;13.40;;;;;;;11.03;100.00;101994.81;5013037;28;20038;-77
2022/10/08 07:54:03;;;;;;;24.35;11.88;;;;;;;11.00;100.00;101984.59;5013246;28;20018;-79
2022/10/08 07:56:31;;;;;;;26.15;11.85;;;;;;;11.07;100.00;101988.59;5013488;28;20054;-79
2022/10/08 07:58:58;;;;;;;24.70;11.07;;;;;;;11.05;100.00;101974.91;5012964;28;20074;-80
2022/10/08 08:01:29;;;;;;;22.42;10.50;;;;;;;11.17;100.00;101995.00;5013257;28;20057;-80
2022/10/08 08:03:59;;;;;;;;;;;;;;;11.23;100.00;102005.06;5013495;28;20029;-80
2022/10/08 08:06:25;;;;;;;20.10;8.75;;;;;;;11.18;100.00;101989.75;5013176;28;20361;-80
2022/10/08 08:08:51;;;;;;;14.25;6.93;;;;;;;11.27;100.00;102004.00;5013094;28;20026;-79
2022/10/08 08:11:19;;;;;;;16.50;7.78;;;;;;;11.37;100.00;102025.94;5013040;28;20465;-79
2022/10/08 08:13:44;;;;;;;21.48;8.15;;;;;;;11.43;100.00;102020.47;5013089;28;20493;-81
2022/10/08 08:16:12;;;;;;;14.90;7.43;;;;;;;11.19;100.00;101983.66;5013059;28;20084;-81
2022/10/08 08:18:40;;;;;;;17.95;6.75;;;;;;;11.32;100.00;102002.06;5013893;28;20026;-83
2022/10/08 08:21:14;;;;;;;14.45;5.45;;;;;;;11.27;100.00;101991.06;5016964;28;20427;-81
2022/10/08 08:23:46;;;;;;;15.85;5.55;;;;;;;11.43;100.00;102024.81;5016839;28;20033;-82
2022/10/08 08:26:14;;;;;;;14.20;5.20;;;;;;;11.57;100.00;102040.50;5016617;28;20022;-84
2022/10/08 08:28:40;;;;;;;15.40;4.45;;;;;;;11.59;100.00;102043.84;5016834;28;20033;-81
2022/10/08 08:31:33;;;;;;;14.35;4.57;;;;;;;11.55;100.00;102036.31;5016753;28;20026;-79
2022/10/08 08:34:01;;;;;;;11.10;3.15;;;;;;;11.66;98.32;102041.81;5016644;28;20058;-76
2022/10/08 08:36:29;;;;;;;6.80;2.67;;;;;;;11.80;98.07;102067.03;5016517;28;20092;-79
2022/10/08 08:38:55;;;;;;;14.45;2.53;;;;;;;11.57;96.98;102021.56;5016656;28;20022;-82
2022/10/08 08:41:21;;;;;;;15.38;2.90;;;;;;;11.87;95.10;102061.50;5016360;28;20108;-83
2022/10/08 08:43:47;;;;;;;11.02;2.60;;;;;;;11.87;96.18;102060.69;5016517;28;20483;-80
2022/10/08 08:46:17;;;;;;;10.10;2.83;;;;;;;11.75;94.22;102039.63;5016408;28;20022;-80
2022/10/08 08:48:45;;;;;;;7.85;1.98;;;;;;;12.00;92.15;102077.31;5016826;28;20104;-82
2022/10/08 08:51:11;;;;;;;10.73;2.70;;;;;;;12.05;92.91;102081.31;5016310;28;20117;-80
2022/10/08 08:53:36;;;;;;;11.50;2.60;;;;;;;12.10;91.11;102075.09;5016268;28;20408;-80
2022/10/08 08:56:05;;;;;;;8.93;2.40;;;;;;;12.19;92.22;102082.38;5016295;28;20026;-81
2022/10/08 08:58:35;;;;;;;9.65;1.73;;;;;;;12.10;91.20;102072.50;5015136;28;20029;-81
2022/10/08 09:01:27;;;;;;;6.63;1.83;;;;;;;12.21;91.46;102084.00;5016464;28;20037;-79
2022/10/08 09:03:58;;;;;;;4.93;1.50;;;;;;;12.21;89.63;102081.41;5016153;28;20096;-75
2022/10/08 09:06:26;;;;;;;10.40;2.33;;;;;;;12.28;89.14;102082.75;5016187;28;20052;-81
2022/10/08 09:08:57;;;;;;;10.15;2.60;;;;;;;12.33;89.19;102085.97;5015983;28;20057;-82
2022/10/08 09:11:23;;;;;;;11.57;2.10;;;;;;;12.37;88.41;102085.81;5015692;28;20068;-76
2022/10/08 09:14:13;;;;;;;9.82;2.42;;;;;;;12.42;86.90;102094.19;5016062;28;20026;-77
2022/10/08 09:16:39;;;;;;;7.53;1.70;;;;;;;12.54;85.87;102101.34;5016065;28;20030;-82
2022/10/08 09:19:04;;;;;;;6.30;1.75;;;;;;;12.64;83.13;102107.75;5015794;28;20036;-81
2022/10/08 09:21:32;;;;;;;7.72;1.60;;;;;;;12.85;83.75;102108.38;5015653;28;20034;-80
2022/10/08 09:23:58;;;;;;;6.85;1.50;;;;;;;12.93;82.23;102065.59;5015759;28;20362;-87
2022/10/08 09:26:28;;;;;;;8.95;1.80;;;;;;;13.38;81.52;102110.75;5015881;28;20112;-84
2022/10/08 09:28:56;;;;;;;11.60;1.75;;;;;;;13.19;80.34;102066.00;5015636;28;20026;-86
2022/10/08 09:31:40;;;;;;;7.10;2.08;;;;;;;13.52;82.46;102111.75;5015444;28;20030;-78
2022/10/08 09:34:09;;;;;;;6.47;1.70;;;;;;;13.73;80.67;102120.94;5015637;28;20022;-80
2022/10/08 09:36:35;;;;;;;8.52;1.63;;;;;;;13.83;79.17;102124.72;4997553;28;20049;-84
2022/10/08 09:39:04;;;;;;;9.63;2.10;;;;;;;13.98;78.03;102133.41;5015879;28;20413;-78
2022/10/08 09:41:30;;;;;;;8.90;1.70;;;;;;;14.07;76.99;102132.91;5015571;28;20026;-81
2022/10/08 09:44:20;;;;;;;7.50;1.52;;;;;;;14.07;77.91;102133.72;5015470;28;20036;-77
2022/10/08 09:46:47;;;;;;;10.93;2.15;;;;;;;14.07;77.02;102136.31;5015335;28;20029;-83
2022/10/08 09:49:19;;;;;;;9.30;1.45;;;;;;;14.07;78.33;102141.53;5015125;28;20057;-80
2022/10/08 09:51:44;;;;;;;7.88;1.50;;;;;;;13.96;74.64;102156.88;5015185;28;20030;-76
2022/10/08 09:54:15;;;;;;;7.55;1.60;;;;;;;13.74;68.61;102141.63;5015190;28;20036;-76
2022/10/08 09:56:40;;;;;;;6.43;1.50;;;;;;;13.74;67.79;102159.81;5015161;28;20113;-77
2022/10/08 09:59:17;;;;;;;8.05;1.20;;;;;;;13.61;69.52;102163.16;5014999;28;20369;-74
2022/10/08 10:01:46;;;;;;;6.57;1.50;;;;;;;13.40;69.39;102149.59;5015061;28;20080;-78
2022/10/08 10:04:36;;;;;;;4.93;1.20;;;;;;;13.45;72.45;102166.56;5015064;28;20030;-81
2022/10/08 10:07:03;;;;;;;8.68;1.67;;;;;;;13.48;71.40;102168.19;4973760;28;20130;-81
2022/10/08 10:09:47;;;;;;;8.00;1.17;;;;;;;13.61;70.65;102165.75;4973985;28;20035;-76
2022/10/08 10:12:25;;;;;;;7.82;1.40;;;;;;;13.61;71.13;102145.00;4973455;28;20046;-76
2022/10/08 10:14:59;;;;;;;7.55;1.58;;;;;;;13.83;71.31;102155.88;4974154;28;20478;-77
2022/10/08 10:17:43;;;;;;;7.88;1.30;;;;;;;14.07;70.00;102167.50;4971402;28;20046;-76
2022/10/08 10:20:20;;;;;;;6.75;1.80;;;;;;;14.19;66.60;102175.53;4973387;28;20035;-81
2022/10/08 10:22:45;;;;;;;6.43;1.27;;;;;;;14.18;66.93;102176.44;4973547;28;20395;-78
2022/10/08 10:25:10;;;;;;;8.60;1.10;;;;;;;14.28;67.07;102180.19;4973822;28;20046;-83
2022/10/08 10:27:42;;;;;;;7.85;1.40;;;;;;;14.06;66.05;102157.19;4973631;28;20355;-81
2022/10/08 10:30:16;;;;;;;4.32;1.05;;;;;;;14.02;65.28;102179.06;4973410;28;20042;-83
2022/10/08 10:32:57;;;;;;;8.85;1.17;;;;;;;13.72;66.70;102150.44;4973439;28;20138;-79
2022/10/08 10:35:28;;;;;;;7.18;1.08;;;;;;;13.85;66.30;102192.13;4973327;28;20058;-83
2022/10/08 10:38:02;;;;;;;7.78;1.52;;;;;;;13.81;66.09;102188.03;4973462;28;20182;-76
2022/10/08 10:40:29;;;;;;;7.18;1.48;;;;;;;13.93;65.98;102192.56;4973461;28;20055;-79
2022/10/08 10:43:12;;;;;;;6.57;1.20;;;;;;;14.02;65.43;102195.47;4974735;28;20486;-82
2022/10/08 10:45:40;;;;;;;5.47;1.55;;;;;;;13.98;64.95;102199.19;5014213;28;20038;-82
2022/10/08 10:48:12;;;;;;;4.75;1.02;;;;;;;13.93;65.62;102188.19;5014117;28;20473;-80
2022/10/08 10:51:09;;;;;;;5.75;1.20;;;;;;;13.94;66.75;102183.84;5014302;28;20022;-79
2022/10/08 10:53:52;;;;;;;7.07;1.52;;;;;;;13.89;65.46;102191.91;5013309;28;20093;-79
2022/10/08 10:56:20;;;;;;;6.45;1.70;;;;;;;13.72;66.01;102179.81;5012770;28;20084;-83
2022/10/08 10:59:12;;;;;;;7.20;1.63;;;;;;;13.45;67.04;102156.19;5014075;28;20033;-83
2022/10/08 11:01:51;;;;;;;5.80;1.17;;;;;;;13.62;67.83;102191.63;5014179;28;20389;-82
2022/10/08 11:04:25;;;;;;;9.43;1.88;;;;;;;13.67;67.20;102197.44;5014120;28;20018;-77
2022/10/08 11:06:56;;;;;;;6.80;1.77;;;;;;;13.66;64.40;102197.50;5013994;28;20061;-82
2022/10/08 11:09:39;;;;;;;5.82;1.58;;;;;;;13.73;66.69;102196.25;5013901;28;20014;-82
2022/10/08 11:12:49;;;;;;;8.20;1.35;;;;;;;13.81;64.62;102199.25;5020262;28;20041;-79
2022/10/08 11:15:40;;;;;;;7.05;1.65;;;;;;;13.83;63.63;102200.00;5033256;28;20030;-83
2022/10/08 11:18:21;;;;;;;;;;;;;;;13.88;63.56;102205.81;5033905;28;20493;-82
2022/10/08 11:20:49;;;;;;;6.18;1.35;;;;;;;13.90;63.80;102203.13;5033533;28;19909;-82
2022/10/08 11:23:27;;;;;;;7.60;1.20;;;;;;;13.72;64.27;102185.03;5033315;28;20025;-80
2022/10/08 11:26:24;;;;;;;7.07;1.95;;;;;;;13.82;66.33;102177.56;5033174;28;20021;-83
2022/10/08 11:29:16;;;;;;;7.65;1.75;;;;;;;14.29;65.32;102202.66;5033261;28;20021;-82